createdAt,value
2023-02-16T00:02:05.864Z,981.43
2023-02-16T00:07:37.466Z,981.18
2023-02-16T00:13:09.731Z,980.91
2023-02-16T00:18:41.481Z,980.84
2023-02-16T00:24:12.847Z,981.09
2023-02-16T00:29:46.704Z,981.07
2023-02-16T00:35:17.099Z,981.21
2023-02-16T00:40:47.821Z,981.14
2023-02-16T00:46:24.322Z,981.1
2023-02-16T00:51:56.125Z,980.95
2023-02-16T00:57:27.434Z,981.05
2023-02-16T01:02:59.484Z,981.06
2023-02-16T01:08:30.859Z,981.15
2023-02-16T01:14:02.677Z,981.23
2023-02-16T01:19:34.218Z,981.23
2023-02-16T01:25:05.783Z,981.25
2023-02-16T01:30:37.686Z,981.3
2023-02-16T01:36:09.348Z,981.32
2023-02-16T01:41:41.037Z,981.54
2023-02-16T01:47:19.377Z,981.52
2023-02-16T01:52:50.917Z,981.65
2023-02-16T01:58:22.534Z,981.89
2023-02-16T02:03:54.662Z,981.86
2023-02-16T02:09:28.627Z,981.73
2023-02-16T02:14:57.809Z,981.62
2023-02-16T02:20:29.421Z,981.31
2023-02-16T02:26:01.704Z,981.16
2023-02-16T02:31:33.232Z,980.75
2023-02-16T02:37:05.140Z,980.82
2023-02-16T02:42:36.531Z,980.79
2023-02-16T02:48:12.876Z,980.62
2023-02-16T02:53:44.509Z,980.62
2023-02-16T02:59:16.302Z,980.87
2023-02-16T03:04:47.878Z,980.81
2023-02-16T03:10:19.860Z,981.1
2023-02-16T03:15:51.572Z,981.39
2023-02-16T03:21:23.177Z,981.51
2023-02-16T03:26:54.623Z,981.5
2023-02-16T03:32:26.527Z,981.72
2023-02-16T03:37:58.385Z,981.75
2023-02-16T03:43:29.942Z,981.85
2023-02-16T03:49:07.902Z,981.71
2023-02-16T03:54:39.997Z,981.74
2023-02-16T04:00:12.092Z,981.63
2023-02-16T04:05:43.401Z,981.56
2023-02-16T04:11:15.084Z,981.4
2023-02-16T04:16:46.833Z,981.47
2023-02-16T04:22:18.410Z,981.64
2023-02-16T04:27:50.166Z,981.67
2023-02-16T04:33:22.024Z,981.63
2023-02-16T04:38:53.411Z,981.57
2023-02-16T04:44:25.394Z,981.44
2023-02-16T04:50:03.505Z,981.24
2023-02-16T04:55:35.042Z,981.49
2023-02-16T05:01:08.065Z,981.45
2023-02-16T05:06:38.677Z,981.45
2023-02-16T05:12:10.557Z,981.54
2023-02-16T05:17:42.293Z,981.34
2023-02-16T05:23:13.876Z,981.24
2023-02-16T05:28:45.684Z,980.99
2023-02-16T05:34:17.264Z,980.99
2023-02-16T05:39:49.040Z,981.05
2023-02-16T05:45:20.716Z,980.96
2023-02-16T05:50:57.088Z,981.16
2023-02-16T05:56:28.941Z,981.21
2023-02-16T06:02:01.022Z,981.21
2023-02-16T06:07:32.313Z,981.3
2023-02-16T06:13:03.902Z,981.17
2023-02-16T06:18:35.448Z,981.23
2023-02-16T06:24:07.515Z,981.3
2023-02-16T06:29:39.293Z,981.57
2023-02-16T06:35:10.879Z,981.45
2023-02-16T06:40:42.443Z,981.44
2023-02-16T06:46:14.259Z,981.41
2023-02-16T06:51:52.418Z,981.88
2023-02-16T06:57:24.169Z,981.84
2023-02-16T07:02:55.957Z,981.97
2023-02-16T07:08:27.411Z,982.27
2023-02-16T07:13:59.114Z,982.23
2023-02-16T07:19:30.912Z,982.87
2023-02-16T07:25:02.622Z,983.03
2023-02-16T07:30:34.533Z,983.75
2023-02-16T07:36:06.321Z,984.55
2023-02-16T07:41:38.108Z,984.69
2023-02-16T07:47:09.558Z,985.76
2023-02-16T07:52:48.113Z,986.48
2023-02-16T07:58:19.578Z,986.85
2023-02-16T08:03:51.518Z,987.18
2023-02-16T08:09:23.045Z,987.49
2023-02-16T08:14:54.812Z,988.27
2023-02-16T08:21:04.620Z,988.08
2023-02-16T08:25:58.153Z,989.99
2023-02-16T08:31:30.326Z,995.16
2023-02-16T08:37:01.698Z,988.99
2023-02-16T08:42:33.218Z,988.45
2023-02-16T08:48:05.256Z,991.09
2023-02-16T08:53:43.317Z,989.99
2023-02-16T08:59:14.953Z,990.65
2023-02-16T09:04:49.532Z,991.15
2023-02-16T09:10:18.256Z,991.65
2023-02-16T09:15:50.077Z,992.43
2023-02-16T09:21:21.651Z,992.59
2023-02-16T09:26:53.599Z,991.45
2023-02-16T09:32:25.813Z,992.82
2023-02-16T09:37:56.890Z,992.09
2023-02-16T09:43:28.976Z,992.82
2023-02-16T09:49:00.545Z,992.96
2023-02-16T09:54:38.583Z,992.95
2023-02-16T10:00:10.552Z,993.02
2023-02-16T10:05:42.472Z,992.84
2023-02-16T10:11:14.511Z,994.04
2023-02-16T10:16:45.673Z,993.99
2023-02-16T10:22:18.705Z,993.23
2023-02-16T10:27:49.154Z,993.5
2023-02-16T10:33:20.998Z,992.95
2023-02-16T10:38:52.413Z,993.19
2023-02-16T10:44:24.160Z,992.86
2023-02-16T10:49:55.940Z,992.95
2023-02-16T10:55:32.173Z,993.84
2023-02-16T11:01:04.781Z,993.06
2023-02-16T11:06:37.521Z,992.33
2023-02-16T11:12:07.543Z,993.15
2023-02-16T11:17:38.900Z,993.36
2023-02-16T11:23:10.569Z,992.6
2023-02-16T11:28:42.597Z,993.36
2023-02-16T11:34:14.066Z,992.81
2023-02-16T11:39:46.106Z,992.83
2023-02-16T11:45:17.541Z,992.76
2023-02-16T11:50:49.420Z,993.15
2023-02-16T11:56:25.542Z,993.12
2023-02-16T12:01:57.306Z,992.19
2023-02-16T12:07:28.953Z,992.99
2023-02-16T12:13:00.431Z,991.64
2023-02-16T12:18:32.294Z,991.75
2023-02-16T12:24:04.114Z,991.35
2023-02-16T12:29:36.119Z,992.03
2023-02-16T12:35:07.574Z,991.5
2023-02-16T12:40:39.153Z,990.92
2023-02-16T12:46:11.238Z,990.47
2023-02-16T12:51:42.979Z,990.94
2023-02-16T12:57:52.694Z,988.83
2023-02-16T13:02:52.849Z,988.27
2023-02-16T13:08:24.364Z,990.01
2023-02-16T13:13:56.263Z,988.85
2023-02-16T13:19:28.079Z,988.76
2023-02-16T13:24:59.642Z,987.84
2023-02-16T13:30:31.981Z,988.28
2023-02-16T13:36:04.688Z,988.13
2023-02-16T13:41:34.924Z,988.54
2023-02-16T13:47:06.778Z,988.07
2023-02-16T13:52:38.551Z,988.21
2023-02-16T13:58:14.521Z,988.33
2023-02-16T14:03:46.463Z,987.94
2023-02-16T14:09:17.830Z,987.58
2023-02-16T14:14:51.603Z,987.43
2023-02-16T14:20:21.545Z,986.94
2023-02-16T14:25:53.065Z,986.75
2023-02-16T14:31:24.989Z,987.43
2023-02-16T14:36:57.122Z,986.88
2023-02-16T14:42:28.337Z,986.93
2023-02-16T14:47:59.925Z,986.92
2023-02-16T14:53:31.831Z,986.74
2023-02-16T14:59:07.800Z,986.27
2023-02-16T15:04:39.539Z,986.56
2023-02-16T15:10:11.342Z,986.33
2023-02-16T15:15:43.093Z,986.17
2023-02-16T15:21:14.766Z,986.07
2023-02-16T15:26:46.552Z,985.88
2023-02-16T15:32:18.794Z,985.33
2023-02-16T15:37:49.995Z,985.33
2023-02-16T15:43:21.932Z,985.34
2023-02-16T15:48:53.539Z,984.88
2023-02-16T15:54:25.644Z,984.87
2023-02-16T16:00:01.534Z,984.65
2023-02-16T16:05:33.111Z,984.34
2023-02-16T16:11:05.836Z,984.36
2023-02-16T16:16:36.696Z,983.91
2023-02-16T16:22:08.266Z,984.24
2023-02-16T16:27:39.977Z,984.34
2023-02-16T16:33:11.579Z,984.45
2023-02-16T16:38:43.430Z,984.12
2023-02-16T16:44:15.030Z,983.58
2023-02-16T16:49:46.906Z,983.39
2023-02-16T16:55:18.738Z,983.54
2023-02-16T17:00:56.624Z,983.45
2023-02-16T17:06:28.410Z,983.47
2023-02-16T17:12:00.349Z,983.31
2023-02-16T17:17:32.082Z,983.62
2023-02-16T17:23:03.704Z,983.61
2023-02-16T17:28:35.301Z,983.58
2023-02-16T17:34:07.410Z,983.21
2023-02-16T17:39:38.868Z,983.45
2023-02-16T17:45:10.597Z,983.31
2023-02-16T17:50:42.822Z,983.12
2023-02-16T17:56:14.206Z,982.82
2023-02-16T18:01:52.675Z,983.0
2023-02-16T18:07:24.205Z,982.58
2023-02-16T18:12:55.860Z,982.91
2023-02-16T18:18:27.403Z,982.5
2023-02-16T18:23:59.272Z,982.27
2023-02-16T18:29:30.888Z,982.12
2023-02-16T18:35:02.670Z,982.19
2023-02-16T18:40:34.441Z,982.14
2023-02-16T18:46:07.336Z,981.98
2023-02-16T18:51:38.034Z,981.81
2023-02-16T18:57:10.037Z,981.62
2023-02-16T19:02:45.470Z,981.78
2023-02-16T19:08:17.341Z,981.85
2023-02-16T19:13:48.939Z,981.44
2023-02-16T19:19:20.663Z,981.36
2023-02-16T19:24:52.780Z,981.14
2023-02-16T19:30:24.489Z,981.3
2023-02-16T19:35:55.944Z,981.16
2023-02-16T19:41:27.976Z,981.24
2023-02-16T19:46:59.579Z,981.29
2023-02-16T19:52:31.441Z,981.05
2023-02-16T19:58:03.212Z,981.59
2023-02-16T20:03:39.348Z,981.52
2023-02-16T20:09:11.034Z,981.44
2023-02-16T20:14:43.179Z,981.37
2023-02-16T20:20:14.729Z,981.75
2023-02-16T20:25:46.194Z,981.91
2023-02-16T20:31:18.436Z,981.66
2023-02-16T20:36:49.936Z,981.37
2023-02-16T20:42:21.565Z,980.41
2023-02-16T20:47:53.055Z,980.89
2023-02-16T20:53:24.914Z,980.56
2023-02-16T20:58:56.747Z,980.37
2023-02-16T21:04:34.714Z,980.41
2023-02-16T21:10:06.611Z,980.2
2023-02-16T21:15:38.269Z,979.75
2023-02-16T21:21:10.007Z,980.15
2023-02-16T21:26:41.763Z,979.82
2023-02-16T21:32:13.792Z,979.83
2023-02-16T21:37:45.110Z,979.68
2023-02-16T21:43:16.864Z,979.74
2023-02-16T21:48:48.498Z,979.67
2023-02-16T21:54:20.309Z,979.56
2023-02-16T21:59:52.917Z,979.39
2023-02-16T22:05:30.237Z,979.48
2023-02-16T22:11:02.036Z,979.89
2023-02-16T22:16:33.789Z,979.7
2023-02-16T22:22:05.499Z,979.53
2023-02-16T22:27:37.168Z,979.56
2023-02-16T22:33:09.258Z,979.52
2023-02-16T22:38:40.864Z,979.35
2023-02-16T22:44:12.914Z,979.01
2023-02-16T22:49:44.492Z,979.39
2023-02-16T22:55:16.758Z,979.44
2023-02-16T23:00:48.217Z,979.03
2023-02-16T23:06:26.323Z,979.17
2023-02-16T23:11:57.954Z,978.9
2023-02-16T23:17:29.645Z,978.98
2023-02-16T23:23:01.310Z,978.83
2023-02-16T23:28:33.150Z,979.22
2023-02-16T23:34:04.755Z,979.0
2023-02-16T23:39:36.460Z,979.47
2023-02-16T23:45:08.240Z,979.26
2023-02-16T23:50:39.846Z,979.25
2023-02-16T23:56:11.774Z,979.32
